Time;durP1;ratioP1;P1;durP2;ratioP2;P2;SDS_P1;SDS_P2;PMS_P1;PMS_P2;Temp;Humidity;BMP_temperature;BMP_pressure;BME280_temperature;BME280_humidity;BME280_pressure;Samples;Min_cycle;Max_cycle;Signal;HPM_P1;HPM_P2
2024/01/05 00:00:42;;;;;;;50.63;31.07;;;6.30;99.90;;;;;;6243675;23;20008;-66
2024/01/05 00:03:08;;;;;;;52.03;31.13;;;6.30;99.90;;;;;;6241730;23;20000;-67
2024/01/05 00:05:35;;;;;;;53.07;31.37;;;6.30;99.90;;;;;;6242964;23;20023;-67
2024/01/05 00:08:01;;;;;;;50.40;31.03;;;6.40;99.90;;;;;;6243790;23;19996;-66
2024/01/05 00:10:27;;;;;;;55.17;31.53;;;6.30;99.90;;;;;;6244935;23;20088;-65
2024/01/05 00:12:52;;;;;;;51.93;31.67;;;6.30;99.90;;;;;;6245703;23;20023;-67
2024/01/05 00:15:18;;;;;;;52.77;31.57;;;6.30;99.90;;;;;;6245888;23;20008;-66
2024/01/05 00:17:44;;;;;;;50.37;29.60;;;6.30;99.90;;;;;;6245133;23;20000;-66
2024/01/05 00:20:11;;;;;;;54.00;31.27;;;6.30;99.90;;;;;;6245845;23;20008;-66
2024/01/05 00:22:37;;;;;;;55.33;32.90;;;6.30;99.90;;;;;;6245266;23;20011;-66
2024/01/05 00:25:03;;;;;;;49.70;30.13;;;6.30;99.90;;;;;;6246186;23;20024;-65
2024/01/05 00:27:29;;;;;;;55.17;32.17;;;6.30;99.90;;;;;;6245803;23;20001;-65
2024/01/05 00:29:55;;;;;;;49.00;29.97;;;6.30;99.90;;;;;;6243795;23;20007;-66
2024/01/05 00:32:21;;;;;;;51.47;31.00;;;6.30;99.90;;;;;;6246429;23;20031;-66
2024/01/05 00:34:47;;;;;;;49.77;29.47;;;6.30;99.90;;;;;;6245510;23;20030;-66
2024/01/05 00:37:12;;;;;;;56.07;30.87;;;6.30;99.90;;;;;;6245014;23;20046;-66
2024/01/05 00:39:38;;;;;;;50.20;30.53;;;6.20;99.90;;;;;;6245484;23;20050;-67
2024/01/05 00:42:05;;;;;;;47.63;30.60;;;6.20;99.90;;;;;;6218733;23;20008;-66
2024/01/05 00:44:31;;;;;;;50.47;29.57;;;6.10;99.90;;;;;;6244766;23;19996;-66
2024/01/05 00:46:56;;;;;;;52.70;30.77;;;6.20;99.90;;;;;;6245001;23;20000;-67
2024/01/05 00:49:22;;;;;;;49.20;29.97;;;6.20;99.90;;;;;;6245955;23;20031;-65
2024/01/05 00:51:48;;;;;;;45.00;29.77;;;6.10;99.90;;;;;;6244076;23;20042;-67
2024/01/05 00:54:14;;;;;;;54.00;31.80;;;6.10;99.90;;;;;;6245002;23;20465;-66
2024/01/05 00:56:39;;;;;;;46.73;29.47;;;6.10;99.90;;;;;;6245575;23;20044;-66
2024/01/05 00:59:06;;;;;;;44.63;29.27;;;6.10;99.90;;;;;;6245187;23;20075;-67
2024/01/05 01:01:32;;;;;;;45.43;28.40;;;6.20;99.90;;;;;;6246008;23;20015;-67
2024/01/05 01:03:58;;;;;;;50.33;30.00;;;6.20;99.90;;;;;;6243995;23;19997;-67
2024/01/05 01:06:24;;;;;;;48.60;29.37;;;6.10;99.90;;;;;;6245095;23;20011;-66
2024/01/05 01:08:50;;;;;;;51.63;30.03;;;6.10;99.90;;;;;;6244476;23;20000;-67
2024/01/05 01:11:17;;;;;;;50.20;29.63;;;6.10;99.90;;;;;;6245328;23;20330;-66
2024/01/05 01:13:43;;;;;;;52.87;30.73;;;6.10;99.90;;;;;;6244145;23;20011;-66
2024/01/05 01:16:10;;;;;;;51.17;29.77;;;6.10;99.90;;;;;;6243985;23;20008;-66
2024/01/05 01:18:36;;;;;;;51.80;30.13;;;6.10;99.90;;;;;;6244102;23;20079;-66
2024/01/05 01:21:01;;;;;;;48.20;30.10;;;6.10;99.90;;;;;;6243285;23;20430;-66
2024/01/05 01:23:27;;;;;;;51.00;30.20;;;6.20;99.90;;;;;;6243009;23;20050;-64
2024/01/05 01:25:53;;;;;;;47.33;30.43;;;6.20;99.90;;;;;;6245098;23;20085;-66
2024/01/05 01:28:19;;;;;;;48.27;29.17;;;6.20;99.90;;;;;;6245009;23;20012;-67
2024/01/05 01:30:44;;;;;;;45.20;29.77;;;6.20;99.90;;;;;;6243160;23;20071;-66
2024/01/05 01:33:10;;;;;;;49.50;29.30;;;6.20;99.90;;;;;;6244601;23;20210;-67
2024/01/05 01:35:36;;;;;;;44.10;29.00;;;6.30;99.90;;;;;;6244068;23;20012;-66
2024/01/05 01:38:01;;;;;;;50.27;30.63;;;6.30;99.90;;;;;;6244024;23;20003;-66
2024/01/05 01:40:27;;;;;;;49.27;28.93;;;6.30;99.90;;;;;;6243725;23;20004;-67
2024/01/05 01:42:53;;;;;;;51.97;31.10;;;6.30;99.90;;;;;;6242890;23;20030;-65
2024/01/05 01:45:18;;;;;;;48.47;29.67;;;6.40;99.90;;;;;;6244541;23;20007;-67
2024/01/05 01:47:45;;;;;;;45.23;28.83;;;6.40;99.90;;;;;;6244544;23;20011;-66
2024/01/05 01:50:12;;;;;;;44.17;28.07;;;6.40;99.90;;;;;;6245188;23;20381;-67
2024/01/05 01:52:40;;;;;;;46.37;29.80;;;6.40;99.90;;;;;;6244857;23;20007;-66
2024/01/05 01:55:07;;;;;;;49.13;29.10;;;6.50;99.90;;;;;;6244761;23;20016;-66
2024/01/05 01:57:36;;;;;;;49.03;29.87;;;6.50;99.90;;;;;;6243195;23;20488;-67
2024/01/05 02:00:02;;;;;;;48.70;29.27;;;6.60;99.90;;;;;;6240714;23;20046;-67
2024/01/05 02:02:30;;;;;;;51.83;30.33;;;6.60;99.90;;;;;;6241261;23;20328;-65
2024/01/05 02:04:56;;;;;;;55.07;30.53;;;6.60;99.90;;;;;;6242738;23;20023;-66
2024/01/05 02:07:22;;;;;;;48.10;29.20;;;6.60;99.90;;;;;;6244022;23;20362;-67
2024/01/05 02:09:48;;;;;;;46.20;29.10;;;6.70;99.90;;;;;;6244565;23;19996;-66
2024/01/05 02:12:14;;;;;;;43.93;27.47;;;6.70;99.90;;;;;;6244329;23;20362;-65
2024/01/05 02:14:40;;;;;;;45.07;28.23;;;6.70;99.90;;;;;;6217040;23;20008;-67
2024/01/05 02:17:26;;;;;;;43.17;27.50;;;6.80;99.90;;;;;;6244052;23;20035;-64
2024/01/05 02:19:52;;;;;;;48.10;29.07;;;6.80;99.90;;;;;;6244933;23;20086;-66
2024/01/05 02:22:19;;;;;;;45.77;27.23;;;6.70;99.90;;;;;;6244000;23;20000;-67
2024/01/05 02:24:45;;;;;;;44.70;28.77;;;6.70;99.90;;;;;;6243453;23;20483;-67
2024/01/05 02:27:10;;;;;;;47.80;29.47;;;6.70;99.90;;;;;;6242885;23;20024;-66
2024/01/05 02:29:37;;;;;;;39.50;27.83;;;6.70;99.90;;;;;;6242737;23;20008;-66
2024/01/05 02:32:02;;;;;;;45.97;29.10;;;6.70;99.90;;;;;;6244048;23;20000;-67
2024/01/05 02:34:28;;;;;;;46.50;29.70;;;6.70;99.90;;;;;;6241083;23;20035;-67
2024/01/05 02:36:54;;;;;;;46.53;29.53;;;6.70;99.90;;;;;;6240950;23;20012;-67
2024/01/05 02:39:19;;;;;;;43.43;28.53;;;6.70;99.90;;;;;;6242803;23;19996;-67
2024/01/05 02:41:45;;;;;;;51.50;29.37;;;6.80;99.90;;;;;;6242445;23;20064;-66
2024/01/05 02:44:10;;;;;;;47.23;29.60;;;6.80;99.90;;;;;;6241843;23;20150;-66
2024/01/05 02:46:37;;;;;;;48.77;30.80;;;6.80;99.90;;;;;;6242066;23;20000;-65
2024/01/05 02:49:03;;;;;;;47.97;29.87;;;6.80;99.90;;;;;;6242586;23;20000;-66
2024/01/05 02:51:29;;;;;;;48.47;29.10;;;6.80;99.90;;;;;;6242864;23;20004;-67
2024/01/05 02:53:55;;;;;;;45.00;28.10;;;6.80;99.90;;;;;;6241466;23;20016;-67
2024/01/05 02:56:22;;;;;;;46.47;27.97;;;6.90;99.90;;;;;;6242054;23;20016;-67
2024/01/05 02:58:49;;;;;;;39.60;26.43;;;6.90;99.90;;;;;;6241364;23;20071;-66
2024/01/05 03:01:16;;;;;;;43.87;25.30;;;6.90;99.90;;;;;;6242352;23;20007;-66
2024/01/05 03:03:45;;;;;;;42.77;25.10;;;6.90;99.90;;;;;;6242513;23;20000;-67
2024/01/05 03:06:11;;;;;;;43.37;25.13;;;6.90;99.90;;;;;;6241443;23;20303;-67
2024/01/05 03:08:37;;;;;;;41.67;24.93;;;6.90;99.90;;;;;;6240690;23;19996;-67
2024/01/05 03:11:03;;;;;;;42.13;25.77;;;7.00;99.90;;;;;;6241544;23;20004;-67
2024/01/05 03:13:28;;;;;;;43.57;27.47;;;7.00;99.90;;;;;;6241821;22;20000;-65
2024/01/05 03:15:56;;;;;;;46.43;28.30;;;7.00;99.90;;;;;;6242153;23;20312;-65
2024/01/05 03:18:21;;;;;;;44.80;28.60;;;6.90;99.90;;;;;;6240490;23;20010;-67
2024/01/05 03:20:47;;;;;;;47.00;29.87;;;7.00;99.90;;;;;;6240417;23;20040;-66
2024/01/05 03:23:14;;;;;;;45.60;27.83;;;7.00;99.90;;;;;;6241337;23;20007;-67
2024/01/05 03:25:41;;;;;;;43.43;26.40;;;7.00;99.90;;;;;;6241817;23;20000;-66
2024/01/05 03:28:07;;;;;;;41.97;28.63;;;7.00;99.90;;;;;;6241622;23;20000;-67
2024/01/05 03:30:32;;;;;;;38.63;27.03;;;6.90;99.90;;;;;;6243441;23;20042;-67
2024/01/05 03:32:58;;;;;;;45.33;27.87;;;6.90;99.90;;;;;;6243926;23;19996;-66
2024/01/05 03:35:24;;;;;;;44.93;26.33;;;6.90;99.90;;;;;;6216218;23;20019;-67
2024/01/05 03:37:50;;;;;;;44.20;26.63;;;6.90;99.90;;;;;;6243745;23;20003;-66
2024/01/05 03:40:15;;;;;;;39.57;25.63;;;6.90;99.90;;;;;;6243520;23;20626;-65
2024/01/05 03:42:41;;;;;;;45.60;28.03;;;6.90;99.90;;;;;;6243082;23;20000;-66
2024/01/05 03:45:07;;;;;;;38.23;25.47;;;6.90;99.90;;;;;;6243121;23;20004;-67
2024/01/05 03:47:33;;;;;;;40.87;25.37;;;6.90;99.90;;;;;;6243325;23;19996;-67
2024/01/05 03:49:59;;;;;;;40.97;25.07;;;7.00;99.90;;;;;;6243363;23;20004;-64
2024/01/05 03:52:25;;;;;;;40.17;25.37;;;6.90;99.90;;;;;;6243066;23;19996;-65
2024/01/05 03:54:51;;;;;;;39.63;23.00;;;7.00;99.90;;;;;;6244287;23;20126;-66
2024/01/05 03:57:16;;;;;;;38.70;25.03;;;6.90;99.90;;;;;;6243933;23;20335;-67
2024/01/05 03:59:43;;;;;;;37.03;23.53;;;6.90;99.90;;;;;;6243197;23;20323;-66
2024/01/05 04:02:08;;;;;;;40.80;23.73;;;7.00;99.90;;;;;;6241966;23;20008;-65
2024/01/05 04:04:34;;;;;;;43.20;24.97;;;7.00;99.90;;;;;;6243993;23;20324;-67
2024/01/05 04:07:00;;;;;;;41.33;24.93;;;7.00;99.90;;;;;;6243326;23;20000;-66
2024/01/05 04:09:25;;;;;;;40.37;25.73;;;7.00;99.90;;;;;;6217932;23;20005;-66
2024/01/05 04:11:51;;;;;;;36.97;25.30;;;6.90;99.90;;;;;;6242820;23;20004;-66
2024/01/05 04:14:17;;;;;;;40.40;24.47;;;6.90;99.90;;;;;;6243031;23;20373;-67
2024/01/05 04:16:43;;;;;;;38.00;24.00;;;6.90;99.90;;;;;;6244038;23;20016;-66
2024/01/05 04:19:09;;;;;;;37.47;24.27;;;6.90;99.90;;;;;;6244138;23;20331;-65
2024/01/05 04:21:34;;;;;;;37.40;23.83;;;7.00;99.90;;;;;;6243543;23;20079;-67
2024/01/05 04:24:01;;;;;;;37.23;23.70;;;7.00;99.90;;;;;;6243539;23;20058;-67
2024/01/05 04:26:26;;;;;;;39.53;24.30;;;7.00;99.90;;;;;;6243040;23;20004;-67
2024/01/05 04:28:52;;;;;;;33.23;23.23;;;6.90;99.90;;;;;;6243130;23;20659;-66
2024/01/05 04:31:18;;;;;;;37.77;23.90;;;6.90;99.90;;;;;;6243413;23;20074;-67
2024/01/05 04:33:43;;;;;;;40.30;25.30;;;6.90;99.90;;;;;;6243122;23;20024;-66
2024/01/05 04:36:10;;;;;;;37.60;23.93;;;6.90;99.90;;;;;;6243588;23;20077;-66
2024/01/05 04:38:35;;;;;;;33.97;23.37;;;6.90;99.90;;;;;;6216315;23;20011;-65
2024/01/05 04:41:04;;;;;;;39.90;24.53;;;6.90;99.90;;;;;;6242535;23;20004;-66
2024/01/05 04:43:30;;;;;;;36.93;23.73;;;6.90;99.90;;;;;;6243289;23;20419;-66
2024/01/05 04:45:55;;;;;;;34.20;22.63;;;6.90;99.90;;;;;;6243539;23;20000;-67
2024/01/05 04:48:21;;;;;;;44.33;24.83;;;6.90;99.90;;;;;;6242454;23;20410;-66
2024/01/05 04:50:47;;;;;;;42.60;24.87;;;6.90;99.90;;;;;;6242974;23;20423;-66
2024/01/05 04:53:12;;;;;;;36.07;22.80;;;6.80;99.90;;;;;;6242544;23;20000;-66
2024/01/05 04:55:38;;;;;;;36.37;24.10;;;6.90;99.90;;;;;;6242094;23;20016;-66
2024/01/05 04:58:04;;;;;;;39.47;24.47;;;6.90;99.90;;;;;;6244346;23;20079;-66
2024/01/05 05:00:29;;;;;;;38.90;23.73;;;6.90;99.90;;;;;;6244604;23;20004;-66
2024/01/05 05:02:55;;;;;;;34.97;21.93;;;6.90;99.90;;;;;;6244002;23;19996;-66
2024/01/05 05:05:22;;;;;;;33.13;21.63;;;6.90;99.90;;;;;;6243773;23;20008;-67
2024/01/05 05:07:48;;;;;;;38.87;22.43;;;7.00;99.90;;;;;;6244468;23;20087;-66
2024/01/05 05:10:14;;;;;;;32.43;21.77;;;7.00;99.90;;;;;;6243800;23;20489;-66
2024/01/05 05:12:39;;;;;;;36.67;22.07;;;7.00;99.90;;;;;;6243458;23;20334;-66
2024/01/05 05:15:07;;;;;;;35.43;22.27;;;6.90;99.90;;;;;;6243954;23;20004;-65
2024/01/05 05:17:33;;;;;;;37.23;23.00;;;6.90;99.90;;;;;;6243419;23;20004;-66
2024/01/05 05:19:58;;;;;;;35.87;23.07;;;6.90;99.90;;;;;;6243916;23;20464;-66
2024/01/05 05:22:24;;;;;;;35.37;22.20;;;6.90;99.90;;;;;;6241734;23;20004;-66
2024/01/05 05:24:54;;;;;;;33.60;21.57;;;6.90;99.90;;;;;;6242428;23;20004;-67
2024/01/05 05:27:20;;;;;;;39.50;21.97;;;6.90;99.90;;;;;;6244016;23;20007;-66
2024/01/05 05:29:47;;;;;;;34.70;21.63;;;6.90;99.90;;;;;;6243319;23;20004;-67
2024/01/05 05:32:13;;;;;;;38.00;22.60;;;6.90;99.90;;;;;;6241845;23;20019;-67
2024/01/05 05:34:40;;;;;;;34.57;22.43;;;6.90;99.90;;;;;;6244010;23;20504;-67
2024/01/05 05:37:06;;;;;;;35.67;22.33;;;6.90;99.90;;;;;;6243587;23;20099;-66
2024/01/05 05:39:31;;;;;;;38.47;23.97;;;6.80;99.90;;;;;;6244477;23;20031;-66
2024/01/05 05:41:57;;;;;;;39.20;23.83;;;6.80;99.90;;;;;;6244603;23;20004;-66
2024/01/05 05:44:23;;;;;;;40.73;23.47;;;6.80;99.90;;;;;;6244943;23;20011;-66
2024/01/05 05:46:48;;;;;;;39.00;23.77;;;6.80;99.90;;;;;;6245171;23;20031;-67
2024/01/05 05:49:14;;;;;;;35.60;23.23;;;6.80;99.90;;;;;;6245056;23;20067;-66
2024/01/05 05:51:40;;;;;;;35.20;22.80;;;6.80;99.90;;;;;;6244495;23;20079;-67
2024/01/05 05:54:05;;;;;;;39.53;24.53;;;6.90;99.90;;;;;;6244137;23;20019;-67
2024/01/05 05:56:31;;;;;;;37.17;23.57;;;6.90;99.90;;;;;;6244448;23;20008;-67
2024/01/05 05:58:57;;;;;;;41.93;24.10;;;6.90;99.90;;;;;;6244533;23;20117;-66
2024/01/05 06:01:23;;;;;;;43.30;25.33;;;6.90;99.90;;;;;;6244925;23;20004;-66
2024/01/05 06:03:49;;;;;;;42.90;24.87;;;6.90;99.90;;;;;;6244428;23;20000;-65
2024/01/05 06:06:17;;;;;;;42.47;23.70;;;6.90;99.90;;;;;;6244474;23;20020;-64
2024/01/05 06:08:43;;;;;;;38.73;24.27;;;6.90;99.90;;;;;;6217861;23;20015;-66
2024/01/05 06:11:09;;;;;;;37.00;23.20;;;6.90;99.90;;;;;;6244308;23;20004;-66
2024/01/05 06:13:35;;;;;;;36.63;22.90;;;7.00;99.90;;;;;;6244339;23;20000;-66
2024/01/05 06:16:00;;;;;;;36.40;23.33;;;7.00;99.90;;;;;;6244941;23;20012;-66
2024/01/05 06:18:26;;;;;;;42.73;23.43;;;6.90;99.90;;;;;;6244996;23;19996;-66
2024/01/05 06:20:52;;;;;;;36.90;23.27;;;6.90;99.90;;;;;;6244490;23;20000;-65
2024/01/05 06:23:18;;;;;;;37.73;23.17;;;6.90;99.90;;;;;;6245189;23;20034;-66
2024/01/05 06:25:43;;;;;;;36.20;23.67;;;6.80;99.90;;;;;;6244116;23;20000;-67
2024/01/05 06:28:10;;;;;;;44.57;24.57;;;6.90;99.90;;;;;;6244318;23;20513;-66
2024/01/05 06:30:35;;;;;;;43.00;24.53;;;6.80;99.90;;;;;;6244801;23;20441;-67
2024/01/05 06:33:01;;;;;;;38.37;24.47;;;6.90;99.90;;;;;;6244894;23;19996;-66
2024/01/05 06:35:26;;;;;;;41.07;24.50;;;6.80;99.90;;;;;;6245134;23;20016;-65
2024/01/05 06:37:52;;;;;;;36.73;24.77;;;6.80;99.90;;;;;;6218047;23;20008;-66
2024/01/05 06:40:18;;;;;;;39.63;24.83;;;6.80;99.90;;;;;;6244293;23;20007;-66
2024/01/05 06:42:44;;;;;;;41.77;24.30;;;6.90;99.90;;;;;;6244633;23;19996;-65
2024/01/05 06:45:09;;;;;;;38.03;23.73;;;6.80;99.90;;;;;;6244572;23;20057;-66
2024/01/05 06:47:35;;;;;;;36.77;22.93;;;6.80;99.90;;;;;;6244098;23;20036;-66
2024/01/05 06:50:01;;;;;;;36.57;23.13;;;6.80;99.90;;;;;;6245026;23;20007;-65
2024/01/05 06:52:26;;;;;;;38.83;24.80;;;6.90;99.90;;;;;;6244763;23;20328;-66
2024/01/05 06:54:52;;;;;;;45.23;23.87;;;6.80;99.90;;;;;;6231603;23;20019;-66
2024/01/05 06:57:18;;;;;;;38.13;23.60;;;6.90;99.90;;;;;;6244339;23;20004;-65
2024/01/05 06:59:43;;;;;;;37.83;23.83;;;6.90;99.90;;;;;;6244430;23;20148;-66
2024/01/05 07:02:09;;;;;;;38.93;24.97;;;6.90;99.90;;;;;;6244782;23;20433;-66
2024/01/05 07:04:34;;;;;;;40.97;24.53;;;6.80;99.90;;;;;;6244327;23;20367;-65
2024/01/05 07:07:00;;;;;;;37.97;22.57;;;6.90;99.90;;;;;;6244284;23;20035;-66
2024/01/05 07:09:26;;;;;;;37.17;23.37;;;6.90;99.90;;;;;;6244210;23;20019;-67
2024/01/05 07:11:52;;;;;;;37.47;22.47;;;6.90;99.90;;;;;;6244551;23;20000;-66
2024/01/05 07:14:18;;;;;;;39.10;23.60;;;6.80;99.90;;;;;;6242630;23;20011;-67
2024/01/05 07:16:43;;;;;;;36.23;23.50;;;6.80;99.90;;;;;;6243942;23;20012;-67
2024/01/05 07:19:09;;;;;;;39.17;24.03;;;6.80;99.90;;;;;;6245250;23;19997;-66
2024/01/05 07:21:41;;;;;;;39.80;24.33;;;6.80;99.90;;;;;;6245315;23;20477;-66
2024/01/05 07:24:07;;;;;;;34.83;23.38;;;6.80;99.90;;;;;;6245662;23;20498;-67
2024/01/05 07:26:32;;;;;;;42.07;23.40;;;6.80;99.90;;;;;;6245298;23;20055;-65
2024/01/05 07:28:58;;;;;;;40.27;23.23;;;6.90;99.90;;;;;;6245435;23;20370;-66
2024/01/05 07:31:24;;;;;;;35.13;22.70;;;6.80;99.90;;;;;;6244584;23;20413;-66
2024/01/05 07:33:49;;;;;;;35.70;22.80;;;6.80;99.90;;;;;;6245223;23;20027;-66
2024/01/05 07:36:15;;;;;;;36.57;22.90;;;6.80;99.90;;;;;;6244785;23;20426;-66
2024/01/05 07:38:41;;;;;;;35.43;24.07;;;6.90;99.90;;;;;;6244836;23;20024;-66
2024/01/05 07:41:06;;;;;;;35.10;21.93;;;6.90;99.90;;;;;;6245289;23;20011;-67
2024/01/05 07:43:32;;;;;;;35.97;22.93;;;6.90;99.90;;;;;;6244985;23;20079;-66
2024/01/05 07:46:01;;;;;;;36.73;22.23;;;7.00;99.90;;;;;;6245474;23;20411;-66
2024/01/05 07:48:27;;;;;;;46.13;23.93;;;7.00;99.90;;;;;;6245122;23;20039;-65
2024/01/05 07:50:52;;;;;;;39.90;23.67;;;7.00;99.90;;;;;;6245247;23;20008;-67
2024/01/05 07:53:18;;;;;;;35.47;24.07;;;7.00;99.90;;;;;;6244743;23;20000;-67
2024/01/05 07:55:44;;;;;;;38.30;24.10;;;7.10;99.90;;;;;;6245287;23;20015;-66
2024/01/05 07:58:09;;;;;;;36.17;23.97;;;7.10;99.90;;;;;;6245466;23;20023;-67
2024/01/05 08:00:35;;;;;;;37.73;24.60;;;7.10;99.90;;;;;;6245135;23;20004;-67
2024/01/05 08:03:03;;;;;;;40.43;23.90;;;7.10;99.90;;;;;;6242099;23;19997;-68
2024/01/05 08:05:29;;;;;;;39.03;23.90;;;7.20;99.90;;;;;;6241960;23;20339;-67
2024/01/05 08:07:54;;;;;;;36.40;24.03;;;7.20;99.90;;;;;;6240793;23;19997;-67
2024/01/05 08:10:20;;;;;;;40.60;24.90;;;7.30;99.90;;;;;;6241588;23;20426;-67
2024/01/05 08:12:46;;;;;;;38.70;24.63;;;7.30;99.90;;;;;;6241911;23;20023;-67
2024/01/05 08:15:11;;;;;;;35.07;23.57;;;7.40;99.90;;;;;;6240909;23;20016;-67
2024/01/05 08:17:38;;;;;;;35.03;24.83;;;7.40;99.90;;;;;;6237290;23;20028;-67
2024/01/05 08:20:05;;;;;;;37.83;22.97;;;7.40;99.90;;;;;;6238455;23;20014;-69
2024/01/05 08:22:31;;;;;;;35.93;23.53;;;7.50;99.90;;;;;;6242505;23;20011;-69
2024/01/05 08:24:57;;;;;;;41.53;22.50;;;7.60;99.90;;;;;;6244801;23;20075;-68
2024/01/05 08:27:23;;;;;;;36.33;22.93;;;7.70;99.90;;;;;;6245186;23;20296;-69
2024/01/05 08:29:49;;;;;;;35.13;23.23;;;7.70;99.90;;;;;;6245373;23;20089;-67
2024/01/05 08:32:14;;;;;;;38.53;22.67;;;7.80;99.90;;;;;;6246375;23;20465;-67
2024/01/05 08:34:40;;;;;;;36.03;21.47;;;7.90;99.90;;;;;;6246922;23;20444;-67
2024/01/05 08:37:06;;;;;;;34.40;22.23;;;8.00;99.90;;;;;;6246492;23;20516;-66
2024/01/05 08:39:32;;;;;;;34.27;22.33;;;8.10;99.90;;;;;;6246183;23;19996;-67
2024/01/05 08:41:58;;;;;;;36.13;22.77;;;8.20;99.90;;;;;;6247054;23;20415;-69
2024/01/05 08:44:24;;;;;;;44.80;22.53;;;8.20;99.90;;;;;;6247025;23;20035;-69
2024/01/05 08:46:49;;;;;;;40.73;22.57;;;8.30;99.90;;;;;;6246623;23;20304;-68
2024/01/05 08:49:15;;;;;;;33.80;22.43;;;8.30;99.90;;;;;;6246277;23;20000;-68
2024/01/05 08:51:45;;;;;;;93.10;25.33;;;8.30;99.90;;;;;;6247126;23;20008;-70
2024/01/05 08:54:11;;;;;;;44.40;27.70;;;8.40;99.90;;;;;;6244282;23;20020;-70
2024/01/05 08:56:37;;;;;;;44.07;28.47;;;8.40;99.90;;;;;;6216954;23;20052;-71
2024/01/05 08:59:04;;;;;;;44.30;27.80;;;8.40;99.90;;;;;;6244852;23;20000;-70
2024/01/05 09:01:32;;;;;;;48.90;29.97;;;8.50;99.90;;;;;;6246715;23;20370;-70
2024/01/05 09:03:58;;;;;;;48.30;29.17;;;8.50;99.90;;;;;;6246479;23;19996;-71
2024/01/05 09:06:24;;;;;;;44.90;29.63;;;8.50;99.90;;;;;;6244260;23;20039;-69
2024/01/05 09:08:49;;;;;;;52.50;30.43;;;8.60;99.90;;;;;;6244807;23;20330;-71
2024/01/05 09:11:16;;;;;;;48.40;29.80;;;8.60;99.90;;;;;;6246326;23;20000;-70
2024/01/05 09:13:41;;;;;;;46.63;30.23;;;8.70;99.90;;;;;;6245828;23;20034;-70
2024/01/05 09:16:07;;;;;;;49.50;30.10;;;8.70;99.90;;;;;;6245279;23;20008;-70
2024/01/05 09:18:33;;;;;;;51.67;28.13;;;8.70;99.90;;;;;;6244921;23;20368;-70
2024/01/05 09:21:02;;;;;;;46.37;28.13;;;8.80;99.90;;;;;;6245493;23;20028;-69
2024/01/05 09:23:28;;;;;;;41.50;28.17;;;8.80;99.90;;;;;;6243855;22;20020;-69
2024/01/05 09:25:54;;;;;;;42.43;26.03;;;8.80;99.90;;;;;;6245131;23;20000;-70
2024/01/05 09:28:20;;;;;;;43.07;27.40;;;8.90;99.90;;;;;;6245918;23;20003;-71
2024/01/05 09:30:46;;;;;;;38.77;24.10;;;8.90;99.90;;;;;;6246145;23;20382;-71
2024/01/05 09:33:12;;;;;;;39.07;23.73;;;9.00;99.90;;;;;;6246830;23;20031;-70
2024/01/05 09:35:38;;;;;;;33.43;21.83;;;9.00;99.90;;;;;;6246110;23;20084;-71
2024/01/05 09:38:04;;;;;;;39.77;21.77;;;9.10;99.90;;;;;;6246448;23;20027;-70
2024/01/05 09:40:30;;;;;;;30.57;21.23;;;9.10;99.90;;;;;;6246397;23;20008;-71
2024/01/05 09:42:57;;;;;;;29.07;20.17;;;9.20;99.90;;;;;;6246115;23;20335;-70
2024/01/05 09:45:24;;;;;;;31.47;20.73;;;9.30;99.90;;;;;;6246403;23;20004;-71
2024/01/05 09:47:51;;;;;;;30.87;19.07;;;9.30;99.90;;;;;;6219825;23;20089;-71
2024/01/05 09:50:17;;;;;;;33.77;20.30;;;9.40;99.90;;;;;;6246515;23;19999;-70
2024/01/05 09:52:44;;;;;;;39.67;19.57;;;9.40;99.90;;;;;;6246246;23;20004;-70
2024/01/05 09:55:11;;;;;;;37.70;20.43;;;9.50;99.90;;;;;;6245471;23;20062;-72
2024/01/05 09:57:42;;;;;;;29.77;18.03;;;9.60;99.90;;;;;;6245870;23;20001;-71
2024/01/05 10:00:12;;;;;;;26.10;15.67;;;9.70;99.90;;;;;;6246627;23;20028;-71
2024/01/05 10:02:48;;;;;;;33.13;14.90;;;9.80;99.90;;;;;;6245682;23;20004;-71
2024/01/05 10:05:13;;;;;;;28.63;14.93;;;9.80;99.90;;;;;;6245025;23;20004;-71
2024/01/05 10:07:43;;;;;;;22.10;11.97;;;9.90;99.90;;;;;;6246127;23;20000;-72
2024/01/05 10:10:11;;;;;;;23.20;12.10;;;10.00;99.90;;;;;;6246199;23;20000;-71
2024/01/05 10:12:37;;;;;;;27.03;11.27;;;10.10;99.90;;;;;;6245791;23;19996;-72
2024/01/05 10:15:06;;;;;;;26.57;11.73;;;10.20;99.90;;;;;;6245845;23;20004;-71
2024/01/05 10:17:35;;;;;;;23.50;11.63;;;10.30;99.90;;;;;;6246196;23;20333;-72
2024/01/05 10:20:15;;;;;;;20.20;10.47;;;10.40;99.90;;;;;;6244556;23;20083;-71
2024/01/05 10:22:43;;;;;;;14.37;9.83;;;10.40;99.90;;;;;;6246110;23;20000;-71
2024/01/05 10:25:21;;;;;;;20.70;10.63;;;10.40;99.90;;;;;;6245980;23;20004;-72
2024/01/05 10:27:49;;;;;;;21.35;10.32;;;10.50;99.90;;;;;;6244278;23;20054;-70
2024/01/05 10:30:25;;;;;;;19.47;10.07;;;10.50;99.90;;;;;;6245517;23;20083;-71
2024/01/05 10:33:07;;;;;;;20.83;11.13;;;10.50;99.90;;;;;;6245096;23;20004;-71
2024/01/05 10:35:34;;;;;;;34.10;12.77;;;10.60;99.90;;;;;;6245287;23;20086;-71
2024/01/05 10:38:11;;;;;;;21.08;11.13;;;;;;;;;;6245892;23;20070;-71
2024/01/05 10:40:37;;;;;;;19.08;10.13;;;10.80;99.90;;;;;;6244949;23;20008;-71
2024/01/05 10:43:11;;;;;;;23.13;10.60;;;10.80;99.90;;;;;;6246282;23;20080;-71
2024/01/05 10:45:39;;;;;;;20.73;10.57;;;11.00;99.90;;;;;;6246386;23;20311;-71
2024/01/05 10:48:09;;;;;;;20.58;8.95;;;11.00;99.90;;;;;;6246634;23;20011;-71
2024/01/05 10:50:41;;;;;;;20.42;9.13;;;11.10;99.90;;;;;;6246149;23;20000;-70
2024/01/05 10:53:10;;;;;;;16.37;8.73;;;11.20;99.90;;;;;;6244522;23;20011;-70
2024/01/05 10:55:37;;;;;;;21.08;9.80;;;11.20;99.90;;;;;;6243426;23;20083;-71
2024/01/05 10:58:07;;;;;;;21.40;9.40;;;11.30;99.90;;;;;;6243606;23;20020;-72
2024/01/05 11:00:32;;;;;;;17.55;8.35;;;11.30;99.90;;;;;;6243593;23;20008;-71
2024/01/05 11:03:14;;;;;;;18.33;8.13;;;11.30;99.90;;;;;;6243242;23;20415;-71
2024/01/05 11:05:41;;;;;;;16.47;7.83;;;11.30;99.90;;;;;;6243907;23;20995;-71
2024/01/05 11:08:18;;;;;;;23.05;7.13;;;11.30;99.90;;;;;;6244631;23;20055;-70
2024/01/05 11:10:59;;;;;;;22.30;7.50;;;11.30;99.90;;;;;;6245901;23;20003;-71
2024/01/05 11:13:54;;;;;;;20.40;7.60;;;11.30;99.90;;;;;;6245773;23;20075;-71
2024/01/05 11:16:36;;;;;;;17.40;7.30;;;11.30;99.90;;;;;;6240968;23;20019;-70
2024/01/05 11:19:29;;;;;;;16.40;6.90;;;11.30;99.90;;;;;;6245834;23;20061;-70
2024/01/05 11:22:02;;;;;;;20.08;7.80;;;11.30;99.90;;;;;;6245451;23;20014;-71
2024/01/05 11:24:28;;;;;;;23.88;7.93;;;11.20;99.90;;;;;;6245781;23;20102;-71
2024/01/05 11:26:55;;;;;;;17.10;7.53;;;11.20;99.90;;;;;;6245827;23;20004;-71
2024/01/05 11:29:46;;;;;;;17.60;7.38;;;11.20;99.90;;;;;;6245810;23;20000;-71
2024/01/05 11:32:46;;;;;;;14.85;8.25;;;11.20;99.90;;;;;;6245743;23;20492;-71
2024/01/05 11:35:20;;;;;;;20.45;9.05;;;11.20;99.90;;;;;;6245736;23;20008;-71
2024/01/05 11:37:47;;;;;;;17.13;8.32;;;11.20;99.90;;;;;;6245606;23;20028;-71
2024/01/05 11:40:25;;;;;;;18.45;7.40;;;11.20;99.90;;;;;;6245643;23;20008;-71
2024/01/05 11:42:51;;;;;;;20.25;8.05;;;11.20;99.90;;;;;;6245738;23;20327;-71
2024/01/05 11:45:47;;;;;;;17.13;7.93;;;11.10;99.90;;;;;;6245714;23;20001;-71
2024/01/05 11:48:36;;;;;;;24.73;7.53;;;11.10;99.90;;;;;;6245714;23;20442;-71
2024/01/05 11:51:08;;;;;;;17.60;7.68;;;11.10;99.90;;;;;;6233510;23;20008;-71
2024/01/05 11:53:34;;;;;;;15.73;7.18;;;11.10;99.90;;;;;;6249541;22;20012;-70
2024/01/05 11:56:07;;;;;;;19.17;8.13;;;11.10;99.90;;;;;;6276402;22;20047;-70
2024/01/05 11:58:38;;;;;;;14.50;7.93;;;11.10;99.90;;;;;;6276373;22;20000;-71
2024/01/05 12:01:12;;;;;;;15.40;6.95;;;11.20;99.90;;;;;;6275747;22;20079;-70
2024/01/05 12:03:39;;;;;;;18.60;7.75;;;11.20;99.90;;;;;;6276213;22;20003;-72
2024/01/05 12:06:09;;;;;;;16.75;7.63;;;11.30;99.90;;;;;;6277716;22;20000;-72
2024/01/05 12:08:35;;;;;;;14.85;6.72;;;11.30;99.90;;;;;;6278403;22;20011;-71
2024/01/05 12:11:03;;;;;;;14.50;7.30;;;11.30;99.90;;;;;;6278692;22;20008;-70
2024/01/05 12:13:32;;;;;;;14.70;7.25;;;11.30;99.90;;;;;;6274168;22;20087;-71
2024/01/05 12:15:59;;;;;;;19.92;8.43;;;11.30;99.90;;;;;;6274687;22;20421;-72
2024/01/05 12:18:26;;;;;;;17.27;8.23;;;11.30;99.90;;;;;;6275706;22;20000;-71
2024/01/05 12:21:03;;;;;;;17.85;8.02;;;11.30;99.90;;;;;;6277644;22;19999;-71
2024/01/05 12:23:31;;;;;;;20.52;8.18;;;11.30;99.90;;;;;;6278014;22;20050;-71
2024/01/05 12:26:05;;;;;;;21.55;8.88;;;11.30;99.90;;;;;;6277673;22;20007;-71
2024/01/05 12:28:33;;;;;;;21.23;8.35;;;11.30;99.90;;;;;;6278169;22;20430;-70
2024/01/05 12:31:00;;;;;;;24.98;8.15;;;11.30;99.90;;;;;;6277722;22;20034;-72
2024/01/05 12:33:27;;;;;;;26.38;9.23;;;11.20;99.90;;;;;;6277569;22;20004;-71
2024/01/05 12:35:53;;;;;;;22.77;9.98;;;11.20;99.90;;;;;;6276944;22;20012;-71